Limoges Airport

LFBL · Département de la Haute-Vienne, Aquitaine-Limousin-Poitou-Charentes, France

METAR anciennes LFBL · Aéroport de Limoges-Bellegarde

Tu vois ci-dessous les METAR des derniers jours. Sélectionne une année pour parcourir les METAR plus anciens, à partir de l'année 2007.

1 mars 2024

Temps Code Temps Temp. Vue Base cloud Vent METAR/SPECI
06:00
L
4 °C 10 km+ 300 ft 210° 210° 8 kt METAR LFBL 010500Z AUTO 21008KT 9999 OVC003 04/04 Q1011 TEMPO 0700 FG VV/// BECMG 28010KT
05:30
L
4 °C 10 km+ 300 ft 200° 200° 6 kt METAR LFBL 010430Z AUTO 20006KT 9999 OVC003 04/04 Q1011 TEMPO 0700 FG VV/// BECMG 28010KT
05:00
L
4 °C 10 km+ 400 ft 210° 210° 5 kt METAR LFBL 010400Z AUTO 21005KT 9999 OVC004 04/04 Q1011 TEMPO 0700 FG VV/// BECMG 28010KT
04:30
L
4 °C 10 km+ 400 ft 220° 220° 5 kt METAR LFBL 010330Z AUTO 22005KT 180V250 9999 OVC004 04/04 Q1011 TEMPO 0700 FG VV///
04:00
I
4 °C 10 km+ 500 ft 250° 250° 5 kt METAR LFBL 010300Z AUTO 25005KT 220V290 9999 OVC005 04/04 Q1012 TEMPO 0700 FG VV///
03:30
I
5 °C 10 km+ 600 ft 270° 270° 5 kt METAR LFBL 010230Z AUTO 27005KT 240V300 9999 BKN006 OVC010 05/04 Q1012 TEMPO 0700 FG VV///
03:00
I
5 °C 10 km+ 700 ft 270° 270° 7 kt METAR LFBL 010200Z AUTO 27007KT 240V310 9999 BKN007 OVC013 05/04 Q1012 TEMPO 0700 FG VV///
02:30
I
5 °C 10 km+ 500 ft 270° 270° 8 kt METAR LFBL 010130Z AUTO 27008KT 9999 BKN005 OVC009 05/05 Q1012 TEMPO 0700 FG VV///
02:00
I
5 °C 10 km+ 600 ft 260° 260° 7 kt METAR LFBL 010100Z AUTO 26007KT 9999 BKN006 OVC011 05/05 Q1011 TEMPO 3500 BR OVC003
01:30
I
5 °C 10 km+ 700 ft 280° 280° 9 kt METAR LFBL 010030Z AUTO 28009KT 250V310 9999 OVC007 05/05 Q1011 TEMPO 3500 BR OVC003
01:00
I
6 °C 10 km+ 800 ft 280° 280° 9 kt METAR LFBL 010000Z AUTO 28009KT 9999 BKN008 BKN012 BKN020 06/05 Q1011 TEMPO 3500 BR OVC003
00:30
I
6 °C 10 km+ 800 ft 280° 280° 8 kt METAR LFBL 292330Z AUTO 28008KT 240V310 9999 BKN008 OVC014 06/05 Q1011 TEMPO 3500 BR OVC003
00:00
I
6 °C 10 km+ 800 ft 280° 280° 8 kt METAR LFBL 292300Z AUTO 28008KT 9999 BKN008 OVC012 06/05 Q1011 TEMPO OVC003

29 février 2024

Temps Code Temps Temp. Vue Base cloud Vent METAR/SPECI
23:30
I
6 °C 10 km+ 600 ft 270° 270° 7 kt METAR LFBL 292230Z AUTO 27007KT 230V290 9999 BKN006 OVC016 06/06 Q1010 TEMPO OVC003
23:00
I
6 °C 10 km+ 800 ft 280° 280° 7 kt METAR LFBL 292200Z AUTO 28007KT 250V310 9999 BKN008 OVC017 06/06 Q1010 TEMPO OVC003
22:30
I
6 °C 10 km+ 800 ft 270° 270° 8 kt METAR LFBL 292130Z AUTO 27008KT 9999 OVC008 06/06 Q1010 TEMPO OVC003
22:00
M
6 °C 10 km+ 1.000 ft 280° 280° 8 kt METAR LFBL 292100Z AUTO 28008KT 250V310 9999 BKN010 BKN034 06/06 Q1010 TEMPO OVC003
21:30
I
6 °C 10 km+ 800 ft 290° 290° 10 kt METAR LFBL 292030Z AUTO 29010KT 260V320 9999 BKN008 OVC014 06/06 Q1010 TEMPO OVC003
21:00
I
7 °C 10 km+ 900 ft 270° 270° 9 kt METAR LFBL 292000Z AUTO 27009KT 240V310 9999 -RA BKN009 BKN013 OVC050 07/06 Q1009 TEMPO 27015G25KT 2000 SHRA BKN005 BKN015CB
20:30
V
7 °C 10 km+ 3.800 ft 270° 270° 6 kt METAR LFBL 291930Z AUTO 27006KT 240V300 9999 -DZ SCT007/// SCT013/// BKN038/// //////CB 07/07 Q1009 TEMPO 27015G25KT 2000 SHRA OVC003
20:00
I
7 °C 8 km 500 ft 260° 260° 13 kt METAR LFBL 291900Z AUTO 26013KT 200V290 8000 -RA BKN005/// OVC009/// //////CB 07/07 Q1009 TEMPO 27015G25KT 2000 SHRA
19:30
I
8 °C 9 km 800 ft 180° 180° 10 kt METAR LFBL 291830Z AUTO 18010KT 9000 -RA BKN008/// OVC012/// //////CB 08/08 Q1008 TEMPO 27015G25KT 2000 SHRA
19:00
M
8 °C 10 km+ 1.200 ft 190° 190° 10 kt METAR LFBL 291800Z AUTO 19010KT 9999 -RA OVC012/// //////CB 08/07 Q1008 TEMPO 27015G25KT 2000 SHRA BKN006 BKN015TCU
18:30
I
8 °C 10 km+ 900 ft 180° 180° 9 kt METAR LFBL 291730Z AUTO 18009KT 9999 BKN009/// OVC015/// //////TCU 08/07 Q1008 TEMPO 27015G25KT 2000 SHRA
18:00
I
8 °C 10 km+ 700 ft 170° 170° 8 kt METAR LFBL 291700Z AUTO 17008KT 9999 BKN007 BKN013 BKN019 08/07 Q1008 TEMPO 2000 RADZ BECMG 27010KT BKN010
17:30
I
9 °C 10 km+ 500 ft 170° 170° 9 kt METAR LFBL 291630Z AUTO 17009KT 9999 OVC005 09/08 Q1008 TEMPO 2000 RADZ BECMG 27010KT BKN010
17:00
I
8 °C 10 km+ 500 ft 180° 180° 10 kt METAR LFBL 291600Z AUTO 18010KT 9999 BKN005 OVC009 08/08 Q1009 TEMPO 2000 RADZ
16:30
I
8 °C 4,2 km 800 ft 190° 190° 10 kt METAR LFBL 291530Z AUTO 19010KT 9999 4200 OVC008 08/07 Q1009 TEMPO 2000 RADZ BKN003
16:00
M
8 °C 10 km+ 1.000 ft 180° 180° 10 kt METAR LFBL 291500Z AUTO 18010KT 9999 OVC010 08/07 Q1010 TEMPO 2000 RADZ BKN003
15:30
I
8 °C 10 km+ 700 ft 170° 170° 9 kt METAR LFBL 291430Z AUTO 17009KT 9999 BKN007 OVC011 08/07 Q1010 TEMPO 2000 RADZ BKN003
15:00
I
8 °C 7 km 700 ft 180° 180° 9 kt METAR LFBL 291400Z AUTO 18009KT 7000 -RA BKN007 OVC022 08/07 Q1011 TEMPO 2000 RADZ BKN003
14:30
I
7 °C 10 km+ 500 ft 180° 180° 11 kt METAR LFBL 291330Z AUTO 18011KT 9999 BKN005 OVC009 07/07 Q1011 TEMPO 2000 RADZ
14:00
I
8 °C 10 km+ 500 ft 180° 180° 10 kt METAR LFBL 291300Z AUTO 18010KT 9999 OVC005 08/07 Q1012 TEMPO 2000 RADZ
13:30
L
7 °C 10 km+ 400 ft 170° 170° 10 kt METAR LFBL 291230Z AUTO 17010KT 9999 OVC004 07/07 Q1012 TEMPO 2000 RADZ
13:00
L
7 °C 10 km+ 300 ft 180° 180° 10 kt METAR LFBL 291200Z AUTO 18010KT 140V200 9999 OVC003 07/07 Q1013 TEMPO 2000 RADZ
12:30
L
7 °C 10 km+ 300 ft 170° 170° 8 kt METAR LFBL 291130Z AUTO 17008KT 9999 OVC003 07/07 Q1013 TEMPO 1400 RADZ
12:00
L
7 °C 10 km+ 300 ft 180° 180° 10 kt METAR LFBL 291100Z AUTO 18010KT 9999 OVC003 07/07 Q1014 TEMPO 1400 RADZ
11:30
L
6 °C 9 km 200 ft 160° 160° 6 kt METAR LFBL 291030Z AUTO 16006KT 9000 OVC002 06/06 Q1014 TEMPO 1400 RADZ
11:00
L
5 °C 2,3 km - 160° 160° 8 kt METAR LFBL 291000Z AUTO 16008KT 2300 BR VV/// 05/05 Q1014 TEMPO 1400 RADZ BKN002
10:30
L
5 °C 450 m - 150° 150° 7 kt METAR LFBL 290930Z AUTO 15007KT 0600 0450 R21/1300D R03/0800N FG VV/// 05/05 Q1015 TEMPO 1400 RADZ BKN002
10:00
L
5 °C 400 m - 130° 130° 7 kt METAR LFBL 290900Z AUTO 13007KT 0450 0400 R21/0900U R03/0550U FG VV/// 05/05 Q1015 TEMPO 1400 RADZ BKN002
09:30
L
4 °C 250 m - 120° 120° 7 kt METAR LFBL 290830Z AUTO 12007KT 0250 R21/0375N R03/0300N FG VV/// 04/04 Q1015 TEMPO 1400 RADZ BKN002
09:00
L
4 °C 350 m - 120° 120° 4 kt METAR LFBL 290800Z AUTO 12004KT 0400 0350 R21/0450D R03/0450N FG VV/// 04/04 Q1016 NOSIG
08:30
L
4 °C 400 m - 110° 110° 3 kt METAR LFBL 290730Z AUTO 11003KT 080V140 0400 R21/0550N R03/0550N FG VV/// 04/04 Q1016 TEMPO 1400 RADZ BKN002
08:00
L
3 °C 650 m - 110° 110° 3 kt METAR LFBL 290700Z AUTO 11003KT 0700 0650 R21/1000D R03/0750N FG VV/// 03/03 Q1016 TEMPO 1400 RADZ BKN002
07:30
L
3 °C 1,1 km - 080° 080° 3 kt METAR LFBL 290630Z AUTO 08003KT 1300 1100 R21/2800D R03/1700D BR VV/// 03/03 Q1016 TEMPO RADZ BKN002 BECMG 16010KT
07:00
L
3 °C 2,9 km 200 ft 080° 080° 3 kt METAR LFBL 290600Z AUTO 08003KT 2900 -RADZ BR OVC002 03/03 Q1017 TEMPO 1400 RADZ BECMG 16010KT
06:30
L
3 °C 2,3 km 200 ft Var Var 2 kt METAR LFBL 290530Z AUTO VRB02KT 2300 -DZ BR OVC002 03/03 Q1017 TEMPO 1400 RADZ
06:00
L
3 °C 3,3 km 200 ft 080° 080° 2 kt METAR LFBL 290500Z AUTO 08002KT 3300 -DZ BR OVC002 03/03 Q1017 TEMPO 1400 RADZ
05:30
L
3 °C 4,9 km 200 ft 060° 060° 2 kt METAR LFBL 290430Z AUTO 06002KT 4900 -DZ BR OVC002 03/02 Q1017 TEMPO 1400 RADZ
05:00
L
3 °C 7 km 300 ft 070° 070° 2 kt METAR LFBL 290400Z AUTO 07002KT 7000 OVC003 03/01 Q1018 TEMPO 1400 RADZ
04:30
L
3 °C 10 km+ 300 ft Var Var 2 kt METAR LFBL 290330Z AUTO VRB02KT 9999 OVC003 03/01 Q1018 TEMPO 1400 RADZ
04:00
L
3 °C 10 km+ 400 ft 060° 060° 2 kt METAR LFBL 290300Z AUTO 06002KT 9999 OVC004 03/01 Q1019 TEMPO 3000 BR BECMG BKN007
03:30
I
3 °C 10 km+ 500 ft 050° 050° 2 kt METAR LFBL 290230Z AUTO 05002KT 9999 OVC005 03/00 Q1019 TEMPO 3000 BR
03:00
I
3 °C 10 km+ 700 ft Var Var 2 kt METAR LFBL 290200Z AUTO VRB02KT 9999 OVC007 03/00 Q1019 TEMPO 3000 BR BKN010
02:30
I
3 °C 10 km+ 700 ft 040° 040° 3 kt METAR LFBL 290130Z AUTO 04003KT 9999 BKN007 03/00 Q1020 TEMPO 3000 BR BKN010
02:00
V
3 °C 10 km+ - 030° 030° 3 kt METAR LFBL 290100Z AUTO 03003KT 9999 SCT010 03/M00 Q1020 TEMPO 3000 BR BKN010
01:30
V
3 °C 10 km+ - 040° 040° 3 kt METAR LFBL 290030Z AUTO 04003KT CAVOK 03/00 Q1020 TEMPO 3000 BR BKN010
01:00
V
4 °C 10 km+ - Var Var 2 kt METAR LFBL 290000Z AUTO VRB02KT 9999 SCT038 04/00 Q1021 NOSIG
00:30
V
4 °C 10 km+ - Var Var 2 kt METAR LFBL 282330Z AUTO VRB02KT 9999 FEW014 SCT035 04/01 Q1021 NOSIG
00:00
V
4 °C 10 km+ - 130° 130° 1 kt METAR LFBL 282300Z AUTO 13001KT CAVOK 04/01 Q1021 TEMPO 4500 -RADZ BKN014

28 février 2024

Temps Code Temps Temp. Vue Base cloud Vent METAR/SPECI
23:30
V
5 °C 10 km+ - 360° 360° 0 kt METAR LFBL 282230Z AUTO 00000KT CAVOK 05/01 Q1022 TEMPO 4500 -RADZ BKN014
23:00
V
4 °C 10 km+ - 060° 060° 1 kt METAR LFBL 282200Z AUTO 06001KT 9999 FEW043 04/01 Q1022 TEMPO 4500 -RADZ BKN014
22:30
V
4 °C 10 km+ - 200° 200° 2 kt METAR LFBL 282130Z AUTO 20002KT 9999 FEW017 SCT044 04/00 Q1022 TEMPO 4500 -RADZ BKN014
22:00
V
5 °C 10 km+ - 220° 220° 3 kt METAR LFBL 282100Z AUTO 22003KT CAVOK 05/01 Q1022 TEMPO 4500 -RADZ BKN014
21:30
V
5 °C 10 km+ - 280° 280° 2 kt METAR LFBL 282030Z AUTO 28002KT 9999 FEW046 05/01 Q1022 TEMPO 4500 -RADZ BKN014
21:00
V
6 °C 10 km+ - 310° 310° 2 kt METAR LFBL 282000Z AUTO 31002KT 9999 SCT048 06/01 Q1022 TEMPO 4500 -RADZ BKN014
20:30
V
6 °C 10 km+ 4.800 ft 300° 300° 4 kt METAR LFBL 281930Z AUTO 30004KT 9999 BKN048 06/01 Q1022 TEMPO 4500 -RADZ BKN014
20:00
V
6 °C 10 km+ - 310° 310° 3 kt METAR LFBL 281900Z AUTO 31003KT 9999 FEW047 06/00 Q1022 TEMPO 4500 -RADZ BKN014
19:30
V
6 °C 10 km+ - 280° 280° 2 kt METAR LFBL 281830Z AUTO 28002KT CAVOK 06/01 Q1022 TEMPO 4500 -RADZ BKN014
19:00
V
7 °C 10 km+ - Var Var 2 kt METAR LFBL 281800Z AUTO VRB02KT CAVOK 07/01 Q1022 NOSIG
18:30
V
8 °C 10 km+ - 330° 330° 3 kt METAR LFBL 281730Z AUTO 33003KT CAVOK 08/01 Q1022 BECMG BKN014
18:00
V
9 °C 10 km+ - Var Var 2 kt METAR LFBL 281700Z AUTO VRB02KT CAVOK 09/01 Q1022 BECMG BKN014
17:30
V
9 °C 10 km+ - 330° 330° 5 kt METAR LFBL 281630Z AUTO 33005KT 280V030 CAVOK 09/00 Q1022 BECMG BKN014
17:00
V
9 °C 10 km+ - 350° 350° 3 kt METAR LFBL 281600Z AUTO 35003KT 300V040 CAVOK 09/M02 Q1023 NOSIG
16:30
V
9 °C 10 km+ - 320° 320° 7 kt METAR LFBL 281530Z AUTO 32007KT CAVOK 09/M02 Q1023 NOSIG
16:00
V
9 °C 10 km+ - 340° 340° 7 kt METAR LFBL 281500Z AUTO 34007KT 300V020 CAVOK 09/M03 Q1023 NOSIG
15:30
V
9 °C 10 km+ - 340° 340° 8 kt METAR LFBL 281430Z AUTO 34008KT 300V020 CAVOK 09/M02 Q1023 NOSIG
15:00
V
9 °C 10 km+ - 330° 330° 9 kt METAR LFBL 281400Z AUTO 33009KT 290V360 CAVOK 09/M04 Q1023 NOSIG
14:30
V
9 °C 10 km+ - 350° 350° 7 kt METAR LFBL 281330Z AUTO 35007KT 310V020 CAVOK 09/M01 Q1023 NOSIG
14:00
V
8 °C 10 km+ - 350° 350° 7 kt METAR LFBL 281300Z AUTO 35007KT 300V040 CAVOK 08/M01 Q1023 NOSIG
13:30
V
7 °C 10 km+ - 360° 360° 4 kt METAR LFBL 281230Z AUTO 36004KT 320V050 CAVOK 07/01 Q1024 NOSIG
13:00
V
7 °C 10 km+ - 330° 330° 7 kt METAR LFBL 281200Z AUTO 33007KT 300V020 CAVOK 07/02 Q1024 NOSIG
12:30
V
6 °C 10 km+ - 350° 350° 6 kt METAR LFBL 281130Z AUTO 35006KT 320V030 9999 FEW004 06/03 Q1024 NOSIG
12:00
L
5 °C 7 km 300 ft 340° 340° 6 kt METAR LFBL 281100Z AUTO 34006KT 300V030 7000 BKN003 05/04 Q1024 BECMG NSC
11:30
L
4 °C 7 km 200 ft 330° 330° 8 kt METAR LFBL 281030Z AUTO 33008KT 7000 BKN002 04/04 Q1024 BECMG NSC
11:00
L
3 °C 1,6 km - 360° 360° 4 kt METAR LFBL 281000Z AUTO 36004KT 280V060 1600 BR VV/// 03/03 Q1024 BECMG CAVOK
10:30
L
2 °C 500 m - 310° 310° 7 kt METAR LFBL 280930Z AUTO 31007KT 280V360 0600 0500 R21/0900U R03/0800N FG VV/// 02/02 Q1024 BECMG CAVOK
10:00
L
2 °C 600 m 200 ft 320° 320° 6 kt METAR LFBL 280900Z AUTO 32006KT 290V360 0800 0600 R21/2100D R03/1000D FG OVC002 02/02 Q1024 TEMPO VV/// BECMG 9999 NSW
09:30
L
2 °C 500 m 200 ft Var Var 3 kt METAR LFBL 280830Z AUTO VRB03KT 0650 0500 R21/3200U R03/0900N FG OVC002 02/02 Q1023 BECMG CAVOK
09:00
L
2 °C 1 km 200 ft 010° 010° 4 kt METAR LFBL 280800Z AUTO 01004KT 340V040 2300 1000 R21/4100D R03/3000D BR OVC002 02/02 Q1023 NOSIG
08:30
L
2 °C 1,1 km - 020° 020° 4 kt METAR LFBL 280730Z AUTO 02004KT 340V050 1200 1100 R21/2000U R03/2000U BR VV/// 02/02 Q1023 TEMPO 2000 BR OVC002
08:00
L
2 °C 1,2 km 200 ft 350° 350° 5 kt METAR LFBL 280700Z AUTO 35005KT 320V020 1600 1200 R21/2800D R03/2300D BR OVC002 02/02 Q1023 TEMPO 0600 FG VV///
07:30
L
2 °C 3 km 200 ft 330° 330° 6 kt METAR LFBL 280630Z AUTO 33006KT 300V360 3000 BR OVC002 02/02 Q1022 TEMPO 0600 FG VV///
07:00
L
2 °C 3,3 km 200 ft 020° 020° 5 kt METAR LFBL 280600Z AUTO 02005KT 350V050 3300 BR OVC002 02/02 Q1022 TEMPO 0600 FG VV///
06:30
L
2 °C 5 km 200 ft 350° 350° 4 kt METAR LFBL 280530Z AUTO 35004KT 310V020 5000 BR OVC002 02/01 Q1022 TEMPO 0600 FG VV///
06:00
L
2 °C 7 km 300 ft 350° 350° 5 kt METAR LFBL 280500Z AUTO 35005KT 320V030 7000 OVC003 02/02 Q1022 TEMPO 0600 FG VV///
05:30
L
2 °C 10 km+ 400 ft 330° 330° 8 kt METAR LFBL 280430Z AUTO 33008KT 9999 OVC004 02/02 Q1022 TEMPO 0600 FG VV///
05:00
I
2 °C 10 km+ 500 ft 330° 330° 8 kt METAR LFBL 280400Z AUTO 33008KT 9999 OVC005 02/02 Q1022 TEMPO 0600 FG VV///
04:30
M
2 °C 10 km+ 2.100 ft 340° 340° 7 kt METAR LFBL 280330Z AUTO 34007KT 9999 SCT005 BKN021 02/02 Q1021 TEMPO 0600 FG VV///
04:00
I
3 °C 10 km+ 600 ft 340° 340° 6 kt METAR LFBL 280300Z AUTO 34006KT 9999 BKN006 OVC023 03/02 Q1021 TEMPO 0600 FG VV///
03:30
M
4 °C 10 km+ 2.100 ft 330° 330° 7 kt METAR LFBL 280230Z AUTO 33007KT 300V360 9999 SCT007 OVC021 04/03 Q1022 TEMPO 0600 FG VV///
03:00
M
4 °C 10 km+ 1.900 ft 330° 330° 8 kt METAR LFBL 280200Z AUTO 33008KT 9999 FEW009 OVC019 04/03 Q1021 TEMPO 0600 FG VV///
02:30
M
4 °C 10 km+ 1.800 ft 330° 330° 7 kt METAR LFBL 280130Z AUTO 33007KT 310V010 9999 SCT011 OVC018 04/03 Q1021 TEMPO 0600 FG VV///
02:00
M
4 °C 10 km+ 1.800 ft 330° 330° 7 kt METAR LFBL 280100Z AUTO 33007KT 300V010 9999 SCT010 OVC018 04/03 Q1021 TEMPO 0600 FG VV///
01:30
M
4 °C 10 km+ 1.900 ft 340° 340° 8 kt METAR LFBL 280030Z AUTO 34008KT 9999 FEW011 OVC019 04/03 Q1021 TEMPO 0600 FG VV///
01:00
M
4 °C 10 km+ 2.000 ft 340° 340° 9 kt METAR LFBL 280000Z AUTO 34009KT 310V020 9999 FEW011 OVC020 04/03 Q1021 TEMPO 2000 BR OVC002
00:30
M
5 °C 10 km+ 2.300 ft 340° 340° 10 kt METAR LFBL 272330Z AUTO 34010KT 310V010 9999 FEW011 OVC023 05/03 Q1020 TEMPO 1500 BR OVC002
00:00
I
5 °C 10 km+ 900 ft 340° 340° 10 kt METAR LFBL 272300Z AUTO 34010KT 310V010 9999 BKN009 OVC025 05/03 Q1020 TEMPO 1500 BR OVC002

27 février 2024

Temps Code Temps Temp. Vue Base cloud Vent METAR/SPECI
23:30
I
5 °C 10 km+ 800 ft 330° 330° 10 kt METAR LFBL 272230Z AUTO 33010KT 310V010 9999 OVC008 05/04 Q1020 TEMPO 1500 BR OVC002
23:00
I
5 °C 10 km+ 700 ft 340° 340° 9 kt METAR LFBL 272200Z AUTO 34009KT 310V010 9999 OVC007 05/04 Q1020 TEMPO 1500 BR OVC002
22:30
I
5 °C 10 km+ 700 ft 330° 330° 8 kt METAR LFBL 272130Z AUTO 33008KT 300V360 9999 BKN007 BKN015 OVC021 05/04 Q1020 TEMPO 1500 BR OVC002
22:00
M
5 °C 10 km+ 2.200 ft 340° 340° 8 kt METAR LFBL 272100Z AUTO 34008KT 310V020 9999 FEW007 SCT016 OVC022 05/04 Q1019 TEMPO 3000 RA BKN004
21:30
M
4 °C 10 km+ 2.200 ft 330° 330° 6 kt METAR LFBL 272030Z AUTO 33006KT 9999 FEW006 BKN022 OVC027 04/04 Q1019 TEMPO 3000 RA BKN004
21:00
M
4 °C 10 km+ 2.700 ft 310° 310° 8 kt METAR LFBL 272000Z AUTO 31008KT 9999 SCT006 OVC027 04/04 Q1019 TEMPO 3000 RA BKN004
20:30
M
4 °C 10 km+ 2.600 ft 330° 330° 10 kt METAR LFBL 271930Z AUTO 33010KT 9999 OVC026 04/03 Q1019 TEMPO 3000 RA BKN004